METAR AND TAF INFORMATION
METAR FOR LFMO
ADDS - METARS form results

(0358 UTC 07 October 2022)
Data provider http://aviationweather.gov/metar/data/
 
METAR text: LFMO 070330Z AUTO 00000KT 9999 OVC072 13/12 Q1025 TEMPO 4000 BR
Conditions at: LFMO (ORANGE/CARITAT(F, FR) observed 0330 UTC 07 October 2022
Temperature: 13.0°C (55°F)
Dewpoint: 12.0°C (54°F) [RH = 94%]
Pressure (altimeter): 30.27 inches Hg (1025.0 mb)
Winds: calm
Visibility: 6 or more miles (10+ km)
Ceiling: 7200 feet AGL
Clouds: overcast cloud deck at 7200 feet AGL
Weather: no significant weather observed at this time

METAR text: LFMO 070300Z AUTO 00000KT 9999 BKN072 12/11 Q1026 TEMPO 4000 BR
Conditions at: LFMO (ORANGE/CARITAT(F, FR) observed 0300 UTC 07 October 2022
Temperature: 12.0°C (54°F)
Dewpoint: 11.0°C (52°F) [RH = 94%]
Pressure (altimeter): 30.30 inches Hg (1026.0 mb)
Winds: calm
Visibility: 6 or more miles (10+ km)
Ceiling: 7200 feet AGL
Clouds: broken clouds at 7200 feet AGL
Weather: no significant weather observed at this time

Forecast for: LFMO (ORANGE/CARITAT(F, FR)
Text: TAF LFMO 070200Z 0703/0803 VRB02KT CAVOK TX25/0715Z TN12/0706Z
Forecast period: 0300 UTC 07 October 2022 to 0300 UTC 08 October 2022
Forecast type: FROM: standard forecast or significant change
Winds: variable direction winds at 2 MPH (2 knots; 1.0 m/s)
Visibility: 6 or more miles (10+ km)
Ceiling: unknown
Clouds: missing
Weather: no significant weather forecast for this period
Text: TEMPO 0703/0707 4000 BR
Forecast period: 0300 to 0700 UTC 07 October 2022
Forecast type: TEMPORARY: The following changes expected for less than half the time period
Visibility: 2.49 miles (4.01 km)
Ceiling: unknown
Clouds: missing
Weather: BR  (mist)

 AIRPORT MAP

 RUNWAY INFORMATION
Runway 14 Runway length 0 ft Runway width 0 ft
Runway elevation 195 ft Runway displaced threshold 0 ft Runway heading 0
Runway 32 Runway length 0 ft Runway width 0 ft
Runway elevation 187 ft Runway displaced threshold 0 ft Runway heading 0
Runway 15 Runway length 7909 ft Runway width 197 ft
Runway elevation 195 ft Runway displaced threshold 0 ft Runway heading 144
Runway 33 Runway length 7909 ft Runway width 197 ft
Runway elevation 187 ft Runway displaced threshold 0 ft Runway heading 324

 AIRPORT FREQUENCIES
Type APP Name ORANGE APP Frequency 142.45 MHZ
Type TWR Name ORANGE TWR Frequency 120.7 MHZ

 AIRPORT NEAR NAVIGATION AIDS
Type TACAN Name Orange Frequency 109400 KHZ
Type NDB Name Orange Frequency 328 KHZ



Powered by Virtual Airlines Manager [v2.6.2]